Seafalcon — 9HA2814 — position and weather

sailwx.info

Track history (hours):
 
Tides and Currents Weather Stations Pressure Air Temp Water Temp Dewpoint Dewpoint Depression Visibility Wind Speed Wind Dir Waves Ship Positions

Seafalcon

Last reported at 2014-Sep-23 13:33 UTC. Time now 2014-Oct-01 04:13 UTC.
Position N 33°36' E 015°40'.

Length 250 m; draft 11.7 m.

Type: Tanker. MMSI: 256078000.

Date/timePositionNaut miles runAvg speedWind from/ knotsBaromVisibWave heightAir tempDewpointWater temp
2014-Sep-23 13:33N 33°36' E 015°40'2210.9
2014-Sep-23 11:33N 33°53' E 015°23'1210.8
2014-Sep-23 10:25N 34°02' E 015°13'1112.4
2014-Sep-23 09:33N 34°10' E 015°05'1212.4
2014-Sep-23 08:34N 34°19' E 014°55'1110.7
2014-Sep-23 07:33N 34°27' E 014°46'2710.7
2014-Sep-23 05:05N 34°47' E 014°25'611.0
2014-Sep-23 04:34N 34°51' E 014°20'1111.1
2014-Sep-23 03:33N 34°59' E 014°11'1310.9
2014-Sep-23 02:23N 35°09' E 014°01'1110.8
2014-Sep-23 01:22N 35°18' E 013°52'910.9
2014-Sep-23 00:33N 35°24' E 013°45'1110.8
2014-Sep-22 23:33N 35°32' E 013°36'1110.9
2014-Sep-22 22:33N 35°40' E 013°27'1111.0
2014-Sep-22 21:34N 35°48' E 013°18'1111.3
2014-Sep-22 20:34N 35°57' E 013°09'1111.3
2014-Sep-22 19:33N 36°06' E 012°60'1111.4
2014-Sep-22 18:33N 36°14' E 012°50'1111.2
2014-Sep-22 17:34N 36°23' E 012°41'1111.3
2014-Sep-22 16:34N 36°31' E 012°32'1111.0
2014-Sep-22 15:33N 36°39' E 012°23'1310.7
2014-Sep-22 14:21N 36°49' E 012°12'810.3
2014-Sep-22 13:34N 36°55' E 012°05'10 9.8
2014-Sep-22 12:34N 37°02' E 011°56'1010.4
2014-Sep-22 11:33N 37°07' E 011°45'4410.3
2014-Sep-22 07:16N 37°26' E 010°55'710.4
2014-Sep-22 06:33N 37°28' E 010°46'1210.7
2014-Sep-22 05:25N 37°31' E 010°31'911.0
2014-Sep-22 04:33N 37°33' E 010°19'3711.3
2014-Sep-22 01:15N 37°28' E 009°33'811.4
2014-Sep-22 00:33N 37°26' E 009°23'1111.2
2014-Sep-21 23:33N 37°24' E 009°09'1411.2
2014-Sep-21 22:18N 37°20' E 008°52'2010.6
2014-Sep-21 20:24N 37°17' E 008°27'1110.8
2014-Sep-21 19:21N 37°17' E 008°13'911.0
2014-Sep-21 18:33N 37°17' E 008°02'7510.7
2014-Sep-21 11:33N 37°17' E 006°28'1110.6
2014-Sep-21 10:34N 37°17' E 006°15'2210.4
2014-Sep-21 08:27N 37°17' E 005°47'1010.8
2014-Sep-21 07:33N 37°17' E 005°35'1111.2
2014-Sep-21 06:34N 37°17' E 005°21'10 9.9
2014-Sep-21 05:33N 37°18' E 005°09'1311.1
2014-Sep-21 04:21N 37°17' E 004°52'911.1
2014-Sep-21 03:33N 37°17' E 004°41'1211.7
2014-Sep-21 02:33N 37°17' E 004°26'1311.8
2014-Sep-21 01:30N 37°17' E 004°11'2110.9
2014-Sep-20 23:33N 37°17' E 003°44'1511.1
2014-Sep-20 22:14N 37°17' E 003°26'710.9
2014-Sep-20 21:33N 37°17' E 003°16'1110.9
2014-Sep-20 20:33N 37°17' E 003°02'1111.1
2014-Sep-20 19:33N 37°15' E 002°49'1111.0
2014-Sep-20 18:33N 37°13' E 002°35'1111.0
2014-Sep-20 17:34N 37°10' E 002°22'1111.0
2014-Sep-20 16:33N 37°08' E 002°08'1111.1
2014-Sep-20 15:34N 37°06' E 001°55'1511.2
2014-Sep-20 14:15N 37°02' E 001°37'3211.7
2014-Sep-20 11:29N 36°56' E 000°57'1011.2
2014-Sep-20 10:33N 36°53' E 000°45'1313.0
2014-Sep-20 09:31N 36°50' E 000°28'1412.8
2014-Sep-20 08:27N 36°47' E 000°11'3311.3
2014-Sep-20 05:29N 36°40' W 000°29'1011.0
2014-Sep-20 04:33N 36°38' W 000°42'1110.9
2014-Sep-20 03:33N 36°35' W 000°55'21311.7
2014-Sep-19 09:21N 36°05' W 005°17'6 0.6
2014-Sep-19 00:14N 36°00' W 005°20'811.9
2014-Sep-18 23:33N 35°57' W 005°30'214 8.5
2014-Sep-17 22:20N 37°32' W 009°29'7 8.8
2014-Sep-17 21:33N 37°36' W 009°22'9 8.6
2014-Sep-17 20:33N 37°42' W 009°14'9 8.5
2014-Sep-17 19:33N 37°47' W 009°05'8 8.4
2014-Sep-17 18:33N 37°52' W 008°57'5 5.2
2014-Sep-17 17:31N 37°57' W 008°53'0 0.0
2014-Sep-17 16:31N 37°57' W 008°53'0 0.0
2014-Sep-17 15:31N 37°57' W 008°53'0 0.0
2014-Sep-17 14:28N 37°57' W 008°53'0 0.0
2014-Sep-17 13:31N 37°57' W 008°53'0 0.0
2014-Sep-17 12:31N 37°57' W 008°53'0 0.0
2014-Sep-17 11:31N 37°57' W 008°53'0 0.0
2014-Sep-17 10:31N 37°57' W 008°53'0 0.0
2014-Sep-17 09:31N 37°57' W 008°53'0 0.0
2014-Sep-17 08:33N 37°57' W 008°53'0 0.0
2014-Sep-17 07:31N 37°57' W 008°53'0 0.0
2014-Sep-17 06:31N 37°57' W 008°53'0 0.0
2014-Sep-17 05:31N 37°57' W 008°53'0 0.0
2014-Sep-17 03:28N 37°57' W 008°53'0 0.0
2014-Sep-17 02:33N 37°57' W 008°53'0 0.0
2014-Sep-17 01:30N 37°57' W 008°53'0 0.0
2014-Sep-17 00:31N 37°57' W 008°53'0 0.0
2014-Sep-16 23:31N 37°57' W 008°53'0 0.0
2014-Sep-16 22:31N 37°57' W 008°53'0 0.0
2014-Sep-16 21:34N 37°57' W 008°53'0 0.0
2014-Sep-16 20:33N 37°57' W 008°53'0 0.0
2014-Sep-16 19:34N 37°57' W 008°53'0 0.0
2014-Sep-16 18:34N 37°57' W 008°53'0 0.0
2014-Sep-16 17:33N 37°57' W 008°53'0 0.0
2014-Sep-16 16:31N 37°57' W 008°53'0 0.0
2014-Sep-16 15:33N 37°57' W 008°53'0 0.0
2014-Sep-16 14:33N 37°57' W 008°53'0 0.0
2014-Sep-16 13:33N 37°57' W 008°53'0 0.0
2014-Sep-16 12:34N 37°57' W 008°53'0 0.0
2014-Sep-16 11:31N 37°57' W 008°53'0 0.0
2014-Sep-16 10:33N 37°57' W 008°53'1 1.4
2014-Sep-16 09:33N 37°56' W 008°54'9 8.7
2014-Sep-16 08:33N 38°02' W 009°02'1111.2
2014-Sep-16 07:33N 38°07' W 009°14'1211.8
2014-Sep-16 06:33N 38°13' W 009°27'  
Track history (hours):
 
Tides and Currents Weather Stations Pressure Air Temp Water Temp Dewpoint Dewpoint Depression Visibility Wind Speed Wind Dir Waves Ship Positions

Seafalcon

Last reported at 2014-Sep-23 13:33 UTC. Time now 2014-Oct-01 04:13 UTC.
Position N 33°36' E 015°40'.

Length 250 m; draft 11.7 m.

Type: Tanker. MMSI: 256078000.

Date/timePositionNaut miles runAvg speedWind from/ knotsBaromVisibWave heightAir tempDewpointWater temp
2014-Sep-23 13:33N 33°36' E 015°40'2210.9
2014-Sep-23 11:33N 33°53' E 015°23'1210.8
2014-Sep-23 10:25N 34°02' E 015°13'1112.4
2014-Sep-23 09:33N 34°10' E 015°05'1212.4
2014-Sep-23 08:34N 34°19' E 014°55'1110.7
2014-Sep-23 07:33N 34°27' E 014°46'2710.7
2014-Sep-23 05:05N 34°47' E 014°25'611.0
2014-Sep-23 04:34N 34°51' E 014°20'1111.1
2014-Sep-23 03:33N 34°59' E 014°11'1310.9
2014-Sep-23 02:23N 35°09' E 014°01'1110.8
2014-Sep-23 01:22N 35°18' E 013°52'910.9
2014-Sep-23 00:33N 35°24' E 013°45'1110.8
2014-Sep-22 23:33N 35°32' E 013°36'1110.9
2014-Sep-22 22:33N 35°40' E 013°27'1111.0
2014-Sep-22 21:34N 35°48' E 013°18'1111.3
2014-Sep-22 20:34N 35°57' E 013°09'1111.3
2014-Sep-22 19:33N 36°06' E 012°60'1111.4
2014-Sep-22 18:33N 36°14' E 012°50'1111.2
2014-Sep-22 17:34N 36°23' E 012°41'1111.3
2014-Sep-22 16:34N 36°31' E 012°32'1111.0
2014-Sep-22 15:33N 36°39' E 012°23'1310.7
2014-Sep-22 14:21N 36°49' E 012°12'810.3
2014-Sep-22 13:34N 36°55' E 012°05'10 9.8
2014-Sep-22 12:34N 37°02' E 011°56'1010.4
2014-Sep-22 11:33N 37°07' E 011°45'4410.3
2014-Sep-22 07:16N 37°26' E 010°55'710.4
2014-Sep-22 06:33N 37°28' E 010°46'1210.7
2014-Sep-22 05:25N 37°31' E 010°31'911.0
2014-Sep-22 04:33N 37°33' E 010°19'3711.3
2014-Sep-22 01:15N 37°28' E 009°33'811.4
2014-Sep-22 00:33N 37°26' E 009°23'1111.2
2014-Sep-21 23:33N 37°24' E 009°09'1411.2
2014-Sep-21 22:18N 37°20' E 008°52'2010.6
2014-Sep-21 20:24N 37°17' E 008°27'1110.8
2014-Sep-21 19:21N 37°17' E 008°13'911.0
2014-Sep-21 18:33N 37°17' E 008°02'7510.7
2014-Sep-21 11:33N 37°17' E 006°28'1110.6
2014-Sep-21 10:34N 37°17' E 006°15'2210.4
2014-Sep-21 08:27N 37°17' E 005°47'1010.8
2014-Sep-21 07:33N 37°17' E 005°35'1111.2
2014-Sep-21 06:34N 37°17' E 005°21'10 9.9
2014-Sep-21 05:33N 37°18' E 005°09'1311.1
2014-Sep-21 04:21N 37°17' E 004°52'911.1
2014-Sep-21 03:33N 37°17' E 004°41'1211.7
2014-Sep-21 02:33N 37°17' E 004°26'1311.8
2014-Sep-21 01:30N 37°17' E 004°11'2110.9
2014-Sep-20 23:33N 37°17' E 003°44'1511.1
2014-Sep-20 22:14N 37°17' E 003°26'710.9
2014-Sep-20 21:33N 37°17' E 003°16'1110.9
2014-Sep-20 20:33N 37°17' E 003°02'1111.1
2014-Sep-20 19:33N 37°15' E 002°49'1111.0
2014-Sep-20 18:33N 37°13' E 002°35'1111.0
2014-Sep-20 17:34N 37°10' E 002°22'1111.0
2014-Sep-20 16:33N 37°08' E 002°08'1111.1
2014-Sep-20 15:34N 37°06' E 001°55'1511.2
2014-Sep-20 14:15N 37°02' E 001°37'3211.7
2014-Sep-20 11:29N 36°56' E 000°57'1011.2
2014-Sep-20 10:33N 36°53' E 000°45'1313.0
2014-Sep-20 09:31N 36°50' E 000°28'1412.8
2014-Sep-20 08:27N 36°47' E 000°11'3311.3
2014-Sep-20 05:29N 36°40' W 000°29'1011.0
2014-Sep-20 04:33N 36°38' W 000°42'1110.9
2014-Sep-20 03:33N 36°35' W 000°55'21311.7
2014-Sep-19 09:21N 36°05' W 005°17'6 0.6
2014-Sep-19 00:14N 36°00' W 005°20'811.9
2014-Sep-18 23:33N 35°57' W 005°30'214 8.5
2014-Sep-17 22:20N 37°32' W 009°29'7 8.8
2014-Sep-17 21:33N 37°36' W 009°22'9 8.6
2014-Sep-17 20:33N 37°42' W 009°14'9 8.5
2014-Sep-17 19:33N 37°47' W 009°05'8 8.4
2014-Sep-17 18:33N 37°52' W 008°57'5 5.2
2014-Sep-17 17:31N 37°57' W 008°53'0 0.0
2014-Sep-17 16:31N 37°57' W 008°53'0 0.0
2014-Sep-17 15:31N 37°57' W 008°53'0 0.0
2014-Sep-17 14:28N 37°57' W 008°53'0 0.0
2014-Sep-17 13:31N 37°57' W 008°53'0 0.0
2014-Sep-17 12:31N 37°57' W 008°53'0 0.0
2014-Sep-17 11:31N 37°57' W 008°53'0 0.0
2014-Sep-17 10:31N 37°57' W 008°53'0 0.0
2014-Sep-17 09:31N 37°57' W 008°53'0 0.0
2014-Sep-17 08:33N 37°57' W 008°53'0 0.0
2014-Sep-17 07:31N 37°57' W 008°53'0 0.0
2014-Sep-17 06:31N 37°57' W 008°53'0 0.0
2014-Sep-17 05:31N 37°57' W 008°53'0 0.0
2014-Sep-17 03:28N 37°57' W 008°53'0 0.0
2014-Sep-17 02:33N 37°57' W 008°53'0 0.0
2014-Sep-17 01:30N 37°57' W 008°53'0 0.0
2014-Sep-17 00:31N 37°57' W 008°53'0 0.0
2014-Sep-16 23:31N 37°57' W 008°53'0 0.0
2014-Sep-16 22:31N 37°57' W 008°53'0 0.0
2014-Sep-16 21:34N 37°57' W 008°53'0 0.0
2014-Sep-16 20:33N 37°57' W 008°53'0 0.0
2014-Sep-16 19:34N 37°57' W 008°53'0 0.0
2014-Sep-16 18:34N 37°57' W 008°53'0 0.0
2014-Sep-16 17:33N 37°57' W 008°53'0 0.0
2014-Sep-16 16:31N 37°57' W 008°53'0 0.0
2014-Sep-16 15:33N 37°57' W 008°53'0 0.0
2014-Sep-16 14:33N 37°57' W 008°53'0 0.0
2014-Sep-16 13:33N 37°57' W 008°53'0 0.0
2014-Sep-16 12:34N 37°57' W 008°53'0 0.0
2014-Sep-16 11:31N 37°57' W 008°53'0 0.0
2014-Sep-16 10:33N 37°57' W 008°53'1 1.4
2014-Sep-16 09:33N 37°56' W 008°54'9 8.7
2014-Sep-16 08:33N 38°02' W 009°02'1111.2
2014-Sep-16 07:33N 38°07' W 009°14'1211.8
2014-Sep-16 06:33N 38°13' W 009°27'  

Dump ship's entire track history